Data for 05/05/2018

Time Sea-Level Adjusted Pressure Absolute Pressure Temperature Relative Humidity Dew Point   
(mb) (inHg) (mb) (inHg) (C) (F) (%) (C) (F)
00:05 1024 30.24 853 25.19 11.9 53.4 40 -1.3 29.6
00:10 1024 30.24 853 25.19 11.6 52.9 41 -1.3 29.7
00:15 1024 30.24 853 25.19 11.5 52.7 41 -1.3 29.7
00:20 1024 30.24 853 25.19 11.3 52.3 42 -1.3 29.7
00:25 1024 30.24 853 25.19 11.2 52.1 42 -1.2 29.8
00:30 1024 30.24 853 25.19 11.1 51.9 43 -1.2 29.9
00:35 1024 30.24 853 25.19 11 51.8 43 -1.2 29.9
00:40 1024 30.24 853 25.19 11.2 52.1 41 -1.6 29.1
00:45 1024 30.24 853 25.19 11.3 52.3 39 -2 28.5
00:50 1024 30.24 853 25.19 11.4 52.4 40 -1.8 28.7
00:55 1024 30.24 853 25.19 11.3 52.4 39 -2.1 28.2
01:00 1024 30.24 853 25.19 11.4 52.5 39 -2 28.5
01:05 1024 30.24 853 25.19 11.5 52.6 38 -2.3 27.9
01:10 1024 30.24 853 25.19 11.5 52.7 38 -2.2 28
01:15 1024 30.24 853 25.19 11.3 52.4 39 -1.9 28.6
01:20 1024 30.24 853 25.19 11 51.7 40 -1.9 28.6
01:25 1024 30.24 853 25.19 10.8 51.4 41 -1.9 28.7
01:30 1024 30.24 853 25.19 10.7 51.3 41 -2.1 28.3
01:35 1024 30.24 853 25.19 10.7 51.3 40 -2.1 28.1
01:40 1024 30.24 853 25.19 10.7 51.3 41 -2 28.4
01:45 1024 30.24 853 25.19 10.8 51.4 41 -2.1 28.3
01:50 1024 30.24 853 25.19 10.8 51.4 41 -1.8 28.7
01:55 1024 30.24 853 25.19 10.3 50.5 44 -1.4 29.5
02:00 1024 30.24 853 25.19 9.8 49.7 46 -1.3 29.7
02:05 1024 30.24 853 25.19 9.5 49.1 47 -1.1 30
02:10 1024 30.24 853 25.19 9.3 48.8 47 -1.4 29.6
02:15 1024 30.24 853 25.19 9.2 48.5 49 -1.1 30.1
02:20 1024 30.24 853 25.19 9 48.2 48 -1.5 29.3
02:25 1024 30.24 853 25.19 9.3 48.7 47 -1.4 29.5
02:30 1024 30.24 853 25.19 9.2 48.5 47 -1.4 29.4
02:35 1024 30.24 853 25.19 9.1 48.4 48 -1.3 29.6
02:40 1024 30.24 853 25.19 9 48.2 48 -1.5 29.3
02:45 1024 30.24 853 25.19 9.3 48.7 45 -2.1 28.2
02:50 1024 30.24 853 25.19 9.7 49.5 43 -2.2 28
02:55 1024 30.24 853 25.19 9.9 49.8 43 -1.9 28.5
03:00 1024 30.24 853 25.19 9.8 49.7 44 -1.9 28.6
03:05 1024 30.24 853 25.19 9.8 49.7 44 -1.9 28.7
03:10 1024 30.24 853 25.19 9.7 49.4 45 -1.6 29.2
03:15 1024 30.24 853 25.19 9.3 48.8 46 -1.5 29.2
03:20 1024 30.24 853 25.19 9.2 48.5 47 -1.5 29.4
03:25 1024 30.24 853 25.19 9.2 48.6 46 -1.7 28.9
03:30 1024 30.24 853 25.19 9.4 48.8 45 -1.8 28.8
03:35 1024 30.24 853 25.19 9.4 48.9 47 -1.4 29.5
03:40 1024 30.24 853 25.19 9.3 48.7 46 -1.6 29
03:45 1024 30.24 853 25.19 9.5 49.1 45 -1.9 28.5
03:50 1024 30.24 853 25.19 9.8 49.6 44 -1.8 28.8
03:55 1024 30.24 853 25.19 10 50 43 -1.8 28.7
04:00 1024 30.24 853 25.19 10.3 50.5 42 -2.1 28.3
04:05 1024 30.24 853 25.19 10.4 50.7 43 -1.7 29
04:10 1024 30.24 853 25.19 10.3 50.6 43 -1.7 28.9
04:15 1024 30.24 853 25.19 10.3 50.5 43 -1.6 29.1
04:20 1024 30.24 853 25.19 10 49.9 48 -0.6 31
04:25 1024 30.24 853 25.19 9.3 48.7 51 -0.4 31.2
04:30 1024 30.24 853 25.19 9.2 48.5 49 -0.9 30.4
04:35 1024 30.24 853 25.19 9.5 49 46 -1.6 29.1
04:40 1024 30.24 853 25.19 9.8 49.7 44 -1.7 28.9
04:45 1024 30.24 853 25.19 10 50 43 -2 28.5
04:50 1024 30.24 853 25.19 10.3 50.6 43 -1.6 29.1
04:55 1024 30.24 853 25.19 10.3 50.5 47 -0.4 31.3
05:00 1024 30.24 854 25.22 10 49.9 49 -0.3 31.4
05:05 1024 30.24 854 25.22 9.7 49.4 49 -0.5 31
05:10 1024 30.24 854 25.22 9.5 49.1 48 -0.8 30.5
05:15 1024 30.24 853 25.19 9.6 49.3 46 -1.3 29.6
05:20 1024 30.24 853 25.19 9.9 49.7 47 -0.9 30.4
05:25 1024 30.24 853 25.19 9.8 49.6 46 -1.3 29.6
05:30 1024 30.24 853 25.19 9.9 49.9 48 -0.6 30.9
05:35 1024 30.24 853 25.19 9.6 49.4 48 -0.7 30.8
05:40 1024 30.24 853 25.19 9.7 49.5 47 -1 30.1
05:45 1024 30.24 853 25.19 9.8 49.7 46 -1.1 30.1
05:50 1024 30.24 853 25.19 9.9 49.7 46 -1.1 30
05:55 1024 30.24 853 25.19 10 50 46 -1 30.1
06:00 1024 30.24 853 25.19 10.2 50.3 46 -0.9 30.5
06:05 1024 30.24 853 25.19 10.1 50.2 47 -0.6 30.9
06:10 1024 30.24 853 25.19 10 50.1 45 -1.2 29.8
06:15 1024 30.24 853 25.19 10.2 50.4 45 -1 30.2
06:20 1024 30.24 853 25.19 10.3 50.6 47 -0.4 31.3
06:25 1024 30.24 853 25.19 10.3 50.6 49 0 32.1
06:30 1024 30.24 853 25.19 9.9 49.7 50 0.1 32.1
06:35 1024 30.24 853 25.19 9.6 49.2 52 0.3 32.5
06:40 1024 30.24 853 25.19 9.5 49 52 0.2 32.4
06:45 1024 30.24 853 25.19 9.5 49 53 0.4 32.8
06:50 1024 30.24 853 25.19 9.4 49 52 0 32.1
06:55 1024 30.24 853 25.19 9.6 49.4 50 -0.3 31.5
07:00 1024 30.24 854 25.22 9.9 49.9 50 0 32
07:05 1024 30.24 854 25.22 10 49.9 50 0.2 32.3
07:10 1024 30.24 854 25.22 10.1 50.1 50 0.3 32.5
07:15 1024 30.24 854 25.22 9.9 49.9 53 0.8 33.4
07:20 1024 30.24 854 25.22 9.6 49.4 54 0.8 33.5
07:25 1024 30.24 854 25.22 9.8 49.7 49 -0.4 31.2
07:30 1024 30.24 854 25.22 10.3 50.6 46 -0.7 30.7
07:35 1024 30.24 854 25.22 10.4 50.6 49 0.2 32.3
07:40 1024 30.24 854 25.22 10.2 50.3 50 0.3 32.6
07:45 1025 30.27 854 25.22 10.3 50.5 49 -0 32
07:50 1025 30.27 854 25.22 11 51.7 47 -0 32
07:55 1025 30.27 854 25.22 11.3 52.3 45 -0.3 31.5
08:00 1025 30.27 854 25.22 11.6 52.8 45 -0 32
08:05 1025 30.27 854 25.22 11.9 53.3 44 0.2 32.3
08:10 1025 30.27 854 25.22 11.8 53.2 44 0.1 32.2
08:15 1025 30.27 854 25.22 12.3 54.1 42 -0.1 31.8
08:20 1025 30.27 854 25.22 12.6 54.7 41 -0.1 31.9
08:25 1025 30.27 854 25.22 12.5 54.4 43 0.4 32.8
08:30 1025 30.27 854 25.22 12.5 54.4 43 0.2 32.4
08:35 1025 30.27 854 25.22 13.2 55.7 41 0.1 32.2
08:40 1025 30.27 854 25.22 13.4 56.2 40 0.1 32.2
08:45 1025 30.27 854 25.22 13.4 56.1 41 0.5 32.9
08:50 1025 30.27 854 25.22 13.4 56 40 -0 32
08:55 1025 30.27 854 25.22 14 57.2 40 0.7 33.2
09:00 1025 30.27 854 25.22 14.1 57.3 41 1 33.8
09:05 1025 30.27 854 25.22 14.6 58.2 41 1.5 34.8
09:10 1025 30.27 854 25.22 14.6 58.3 39 0.9 33.6
09:15 1025 30.27 854 25.22 15.5 60 37 1.1 34
09:20 1025 30.27 854 25.22 15.2 59.4 38 0.9 33.7
09:25 1025 30.27 854 25.22 15.2 59.3 36 0.4 32.7
09:30 1025 30.27 854 25.22 15.6 60.1 35 0.1 32.2
09:35 1025 30.27 854 25.22 15.9 60.6 34 0.3 32.6
09:40 1025 30.27 854 25.22 16 60.7 35 0.6 33.1
09:45 1025 30.27 854 25.22 16.3 61.4 32 -0.1 31.7
09:50 1025 30.27 854 25.22 16.5 61.7 32 -0 32
09:55 1025 30.27 854 25.22 17.1 62.7 31 -0.3 31.5
10:00 1025 30.27 854 25.22 17.9 64.3 28 -0.7 30.8
10:05 1025 30.27 854 25.22 18.2 64.7 27 -0.9 30.4
10:10 1025 30.27 854 25.22 18.3 65 27 -0.8 30.5
10:15 1025 30.27 854 25.22 18.2 64.7 28 -0.7 30.8
10:20 1025 30.27 854 25.22 18.1 64.6 27 -0.9 30.3
10:25 1025 30.27 854 25.22 18.3 64.9 28 -0.3 31.4
10:30 1025 30.27 854 25.22 18.5 65.3 27 -0.8 30.6
10:35 1025 30.27 854 25.22 18.7 65.6 26 -1.2 29.8
10:40 1025 30.27 854 25.22 18.6 65.4 26 -1.3 29.7
10:45 1025 30.27 854 25.22 18.6 65.4 26 -1.1 29.9
10:50 1025 30.27 854 25.22 18.4 65.1 26 -1.3 29.7
10:55 1025 30.27 854 25.22 18.8 65.9 25 -1.3 29.6
11:00 1025 30.27 854 25.22 19.2 66.5 26 -0.9 30.4
11:05 1025 30.27 854 25.22 19.2 66.6 24 -1.5 29.3
11:10 1025 30.27 854 25.22 19.6 67.3 25 -0.7 30.8
11:15 1025 30.27 854 25.22 19.5 67.2 25 -0.8 30.6
11:20 1025 30.27 854 25.22 19.4 67 26 -0.5 31.1
11:25 1024 30.24 854 25.22 19 66.2 27 -0.3 31.4
11:30 1025 30.27 854 25.22 19.4 67 27 -0.1 31.9
11:35 1025 30.27 854 25.22 19.9 67.8 25 -0.4 31.3
11:40 1025 30.27 854 25.22 19.8 67.7 26 -0 32
11:45 1025 30.27 854 25.22 19.5 67.2 28 0.6 33
11:50 1025 30.27 854 25.22 18.8 65.8 28 -0.1 31.8
11:55 1025 30.27 854 25.22 19.4 66.9 26 -0.4 31.3
12:00 1024 30.24 854 25.22 19.8 67.6 26 0 32
12:05 1024 30.24 854 25.22 19.7 67.4 25 -0.5 31.1
12:10 1024 30.24 854 25.22 19 66.1 27 -0.4 31.3
12:15 1024 30.24 854 25.22 18.6 65.4 27 -0.7 30.8
12:20 1024 30.24 854 25.22 19 66.2 25 -1.1 30
12:25 1024 30.24 854 25.22 19.9 67.9 24 -0.9 30.4
12:30 1024 30.24 854 25.22 20.4 68.8 25 -0.2 31.6
12:35 1024 30.24 853 25.19 20 68 25 -0.7 30.7
12:40 1024 30.24 853 25.19 19.8 67.6 24 -1.4 29.5
12:45 1024 30.24 853 25.19 19.2 66.6 25 -1.1 30.1
12:50 1024 30.24 853 25.19 19.9 67.8 23 -1.6 29
12:55 1024 30.24 853 25.19 20.3 68.6 22 -1.7 28.9
13:00 1024 30.24 853 25.19 20.2 68.3 22 -1.8 28.7
13:05 1024 30.24 853 25.19 19.6 67.3 24 -1.5 29.3
13:10 1024 30.24 853 25.19 20 68.1 22 -2.2 28.1
13:15 1024 30.24 853 25.19 20.9 69.6 20 -2.7 27.1
13:20 1024 30.24 853 25.19 19.7 67.4 23 -1.6 29.1
13:25 1024 30.24 853 25.19 19.1 66.3 23 -2.2 28
13:30 1024 30.24 853 25.19 19.1 66.3 22 -2.9 26.8
13:35 1024 30.24 853 25.19 20.2 68.3 21 -3 26.6
13:40 1024 30.24 853 25.19 20.7 69.2 21 -2.3 27.9
13:45 1024 30.24 853 25.19 20.5 68.8 21 -2.7 27.2
13:50 1024 30.24 853 25.19 21.2 70.1 21 -1.7 28.9
13:55 1024 30.24 853 25.19 20.6 69 19 -3.7 25.4
14:00 1023 30.21 853 25.19 20.4 68.7 21 -2.6 27.3
14:05 1023 30.21 853 25.19 19.6 67.3 22 -2.6 27.4
14:10 1023 30.21 853 25.19 20.7 69.3 21 -2.5 27.5
14:15 1023 30.21 853 25.19 20.8 69.4 21 -2 28.5
14:20 1023 30.21 853 25.19 20.3 68.5 21 -2.4 27.7
14:25 1023 30.21 853 25.19 20.4 68.6 21 -2.6 27.3
14:30 1023 30.21 853 25.19 20.5 68.9 21 -2.6 27.3
14:35 1023 30.21 853 25.19 20.1 68.3 23 -1.7 28.9
14:40 1024 30.24 853 25.19 20 68 24 -0.9 30.3
14:45 1024 30.24 853 25.19 19.8 67.6 25 -0.9 30.4
14:50 1024 30.24 853 25.19 19.7 67.4 24 -1.5 29.2
14:55 1024 30.24 853 25.19 19.7 67.5 24 -1.3 29.6
15:00 1024 30.24 853 25.19 19.7 67.5 24 -1.1 30.1
15:05 1024 30.24 853 25.19 19.5 67.1 25 -1.2 29.9
15:10 1024 30.24 853 25.19 19.8 67.7 24 -1 30.2
15:15 1024 30.24 853 25.19 20.2 68.3 22 -1.8 28.8
15:20 1024 30.24 853 25.19 20.2 68.4 22 -1.9 28.6
15:25 1024 30.24 853 25.19 20.6 69.1 22 -1.7 29
15:30 1023 30.21 853 25.19 21 69.8 21 -1.9 28.6
15:35 1023 30.21 853 25.19 21.1 70.1 21 -1.6 29.1
15:40 1023 30.21 853 25.19 21 69.9 22 -1.6 29.1
15:45 1024 30.24 853 25.19 20.9 69.7 22 -1.7 28.9
15:50 1023 30.21 853 25.19 20.5 68.8 21 -2.2 28.1
15:55 1023 30.21 853 25.19 20.5 68.9 22 -1.9 28.6
16:00 1023 30.21 853 25.19 20.3 68.6 23 -1.5 29.3
16:05 1024 30.24 853 25.19 20.2 68.3 22 -2.1 28.2
16:10 1024 30.24 853 25.19 20 68.1 23 -1.6 29.2
16:15 1024 30.24 853 25.19 19.7 67.5 24 -1.1 30
16:20 1024 30.24 853 25.19 19.3 66.7 27 0.2 32.3
16:25 1024 30.24 853 25.19 18 64.4 33 1.5 34.8
16:30 1025 30.27 854 25.22 16.4 61.5 47 5.2 41.3
16:35 1025 30.27 854 25.22 14.4 57.9 57 6.1 43.1
16:40 1025 30.27 854 25.22 13.2 55.8 66 7 44.7
16:45 1025 30.27 854 25.22 12.8 55 65 6.3 43.4
16:50 1025 30.27 854 25.22 12.7 54.8 70 7.3 45.2
16:55 1025 30.27 854 25.22 12.7 54.9 71 7.7 45.8
17:00 1025 30.27 854 25.22 13 55.3 67 7.1 44.7
17:05 1025 30.27 854 25.22 13 55.4 68 7.3 45.1
17:10 1025 30.27 854 25.22 12.9 55.3 70 7.6 45.7
17:15 1025 30.27 854 25.22 12.6 54.7 70 7.3 45.1
17:20 1025 30.27 854 25.22 12.7 54.9 67 6.8 44.3
17:25 1025 30.27 854 25.22 13.2 55.8 65 6.9 44.4
17:30 1025 30.27 854 25.22 13.6 56.4 62 6.4 43.5
17:35 1025 30.27 854 25.22 13.6 56.4 63 6.7 44
17:40 1025 30.27 854 25.22 13.8 56.9 60 6.2 43.1
17:45 1025 30.27 854 25.22 13.7 56.6 63 6.7 44.1
17:50 1025 30.27 854 25.22 13.6 56.5 60 6 42.8
17:55 1025 30.27 854 25.22 13.8 56.8 59 5.9 42.6
18:00 1025 30.27 854 25.22 14 57.3 57 5.7 42.2
18:05 1025 30.27 854 25.22 14.2 57.5 53 4.7 40.5
18:10 1025 30.27 854 25.22 14.1 57.3 53 4.8 40.6
18:15 1025 30.27 854 25.22 14.2 57.6 51 4.3 39.8
18:20 1024 30.24 854 25.22 14.4 57.9 52 4.8 40.6
18:25 1025 30.27 854 25.22 14.5 58.1 51 4.6 40.2
18:30 1025 30.27 854 25.22 14.4 58 52 4.9 40.8
18:35 1025 30.27 854 25.22 14.4 57.9 55 5.4 41.8
18:40 1024 30.24 854 25.22 14.3 57.8 54 5.3 41.5
18:45 1024 30.24 853 25.19 14.1 57.5 55 5.3 41.5
18:50 1024 30.24 853 25.19 14.1 57.3 61 6.6 43.9
18:55 1024 30.24 853 25.19 14 57.3 58 6 42.9
19:00 1024 30.24 853 25.19 13.9 57 57 5.6 42
19:05 1024 30.24 853 25.19 13.8 56.8 58 5.7 42.2
19:10 1024 30.24 853 25.19 13.9 56.9 57 5.5 41.8
19:15 1024 30.24 853 25.19 13.8 56.9 57 5.5 42
19:20 1024 30.24 853 25.19 13.8 56.9 57 5.5 41.9
19:25 1024 30.24 853 25.19 13.8 56.9 56 5.2 41.3
19:30 1024 30.24 853 25.19 13.8 56.9 56 5.3 41.6
19:35 1024 30.24 853 25.19 13.8 56.9 55 5.1 41.1
19:40 1024 30.24 853 25.19 13.8 56.9 56 5.4 41.6
19:45 1024 30.24 853 25.19 13.8 56.8 57 5.6 42.1
19:50 1024 30.24 853 25.19 13.6 56.5 59 5.8 42.4
19:55 1024 30.24 853 25.19 13.5 56.3 59 5.8 42.4
20:00 1024 30.24 853 25.19 13.5 56.2 60 5.8 42.5
20:05 1024 30.24 853 25.19 13.3 56 60 5.9 42.5
20:10 1024 30.24 853 25.19 13.1 55.7 62 6 42.8
20:15 1024 30.24 853 25.19 13 55.4 63 6.1 43
20:20 1024 30.24 853 25.19 12.9 55.2 63 6 42.9
20:25 1024 30.24 853 25.19 12.8 55 63 6 42.9
20:30 1024 30.24 853 25.19 12.7 54.8 63 5.9 42.6
20:35 1024 30.24 853 25.19 12.7 54.8 62 5.8 42.4
20:40 1024 30.24 853 25.19 12.6 54.6 64 5.9 42.7
20:45 1024 30.24 853 25.19 12.5 54.4 63 5.7 42.3
20:50 1024 30.24 853 25.19 12.4 54.3 63 5.5 42
20:55 1024 30.24 853 25.19 12.3 54.2 64 5.7 42.3
21:00 1024 30.24 853 25.19 12.2 53.9 66 6 42.8
21:05 1024 30.24 853 25.19 11.9 53.5 66 5.8 42.5
21:10 1024 30.24 853 25.19 11.8 53.2 67 5.8 42.4
21:15 1024 30.24 853 25.19 11.6 52.9 66 5.5 41.9
21:20 1024 30.24 853 25.19 11.5 52.8 67 5.7 42.3
21:25 1024 30.24 853 25.19 11.3 52.3 69 5.7 42.3
21:30 1024 30.24 853 25.19 11 51.8 69 5.5 41.9
21:35 1024 30.24 853 25.19 10.9 51.6 68 5.2 41.3
21:40 1024 30.24 853 25.19 11.1 52 67 5.2 41.3
21:45 1024 30.24 853 25.19 11.1 51.9 67 5.3 41.5
21:50 1024 30.24 853 25.19 10.9 51.7 68 5.3 41.5
21:55 1024 30.24 853 25.19 10.9 51.6 68 5.3 41.5
22:00 1024 30.24 853 25.19 10.7 51.3 69 5.2 41.4
22:05 1024 30.24 853 25.19 10.5 51 69 5.1 41.3
22:10 1024 30.24 853 25.19 10.6 51.1 68 4.9 40.9
22:15 1024 30.24 853 25.19 10.9 51.5 66 4.8 40.6
22:20 1024 30.24 853 25.19 11 51.8 66 5 40.9
22:25 1024 30.24 853 25.19 10.9 51.7 66 4.9 40.8
22:30 1024 30.24 853 25.19 10.9 51.6 66 4.9 40.9
22:35 1024 30.24 853 25.19 10.9 51.7 66 4.9 40.7
22:40 1024 30.24 853 25.19 11.1 52 65 4.8 40.6
22:45 1024 30.24 853 25.19 11.2 52.1 64 4.8 40.6
22:50 1024 30.24 853 25.19 11 51.9 66 4.9 40.9
22:55 1024 30.24 853 25.19 10.6 51.1 69 5.1 41.3
23:00 1024 30.24 853 25.19 10.1 50.2 69 4.6 40.4
23:05 1024 30.24 853 25.19 10.1 50.3 69 4.7 40.5
23:10 1024 30.24 853 25.19 10.3 50.6 68 4.7 40.4
23:15 1024 30.24 853 25.19 10.4 50.7 68 4.7 40.5
23:20 1024 30.24 853 25.19 10.2 50.4 69 4.8 40.7
23:25 1024 30.24 853 25.19 9.9 49.8 70 4.8 40.6
23:30 1024 30.24 853 25.19 9.8 49.7 70 4.6 40.4
23:35 1024 30.24 853 25.19 9.9 49.9 70 4.7 40.5
23:40 1024 30.24 853 25.19 9.9 49.9 70 4.7 40.5
23:45 1024 30.24 853 25.19 10 49.9 69 4.6 40.3
23:50 1023 30.21 853 25.19 10.2 50.3 68 4.5 40.2
23:55 1023 30.21 853 25.19 10.3 50.6 68 4.6 40.4
24:00 1023 30.21 853 25.19 10.4 50.7 67 4.5 40.2